DAOODAOR

Guest
Details From DAOO - ES SENIA
To DAOR - BECHAR
Flight Number -
Tags generated
Created
Modified
Stats Distance 283 nm / 524 km
Max Altitude 34,000 ft / 10,363 m
Waypoints 7
Social Downloads 1
Likes 0
Share VATSIM

Download

Looking for another format? Having issues loading an existing format? Contact us
Advertisement - Login to hide

Notes

Basic altitude profile: - Ascent Rate: 2500ft/min - Ascent Speed: 250kts - Cruise Altitude: 33000ft - Cruise Speed: 420kts - Descent Rate: 1500ft/min - Descent Speed: 250kts Options: - Use NATs: yes - Use PACOTS: yes - Use low airways: yes - Use high airways: yes

Route

DAOO ORA A411 ORSUP UA411 OJD UG664 GULTI DAOR

ID Type Via Altitude Latitude Longitude Leg Dist Tot Dist Heading (true) Name
O DAOO APT - 0 ft / 0 m 35.62386˚ -0.62118˚ - 0 nm - ES SENIA
ORA VOR - 600 ft / 183 m 35.61265˚ -0.65499˚ 1 nm 1 nm 248° / 248° ORAN VOR-DME
ORSUP FIX A411 (AWY-LO) 24,500 ft / 7,468 m 34.84861˚ -1.84056˚ 74 nm 75 nm 232° / 231° -
OJD VOR UA411 (AWY-HI) 28,600 ft / 8,717 m 34.77333˚ -1.95028˚ 7 nm 82 nm 230° / 230° OUJDA VOR-DME
KETIB FIX UG664 (AWY-HI) 34,000 ft / 10,363 m 34.57667˚ -2.32583˚ 21 nm 104 nm 238° / 237° -
GULTI FIX UG664 (AWY-HI) 32,000 ft / 9,754 m 34.13056˚ -2.49833˚ 28 nm 133 nm 198° / 198° -
O DAOR APT - 0 ft / 0 m 31.64575˚ -2.26986˚ 149 nm 282 nm 176° / 176° BECHAR

Altitude Profile

Advertisement - Login to hide

Weather


0- 5 10 15 20 25 30 35+ Temperature / ° C

Clouds and Precipitation
Forecast for 2017-12-13 06:00 UTC. Updated 3 minutes ago

Ground ~20,000 ft ~40,000 ft Winds

DAOO

Details ICAO DAOO (ORN)
Name ES SENIA
Region Algeria
Timezone Africa/Algiers (UTC+1.0)
Stats Elevation 295 ft / 90 m (AMSL)
Location 35.623858° -0.621183°
Runways 1
Magnetic Variation 0.151° E

METAR

DAOO 130500Z 00000KT 9999 FEW020 BKN033 06/05 Q1026

Decode

TAF

TAF DAOO 122300Z 1300/1324 VRB02KT 9999 SCT026 BECMG 1315/1318 04005KT CAVOK BECMG 1318/1321 VRB02KT

Decode

Departure Runways

ID Width Length Bearing (true) Bearing (mag) Surface Threshold Offset Overrun Length
07 148 ft / 45 m 10,006 ft / 3,050 m 67.06° 66.91° Asphalt 0 ft / 0 m 328 ft / 100 m
25 148 ft / 45 m 10,006 ft / 3,050 m 247.08° 246.93° Asphalt 196 ft / 60 m 0 ft / 0 m

DAOR

Details ICAO DAOR (CBH)
Name BECHAR
Region Algeria
Timezone Africa/Algiers (UTC+1.0)
Stats Elevation 2,661 ft / 811 m (AMSL)
Location 31.645745° -2.269862°
Runways 2
Magnetic Variation 0.373° W

METAR

DAOR 130500Z 35006KT 9999 FEW033 06/04 Q1021

Decode

TAF

Not found

Destination Runways

ID Width Length Bearing (true) Bearing (mag) Surface Threshold Offset Overrun Length
06 148 ft / 45 m 12,238 ft / 3,730 m 59.85° 60.22° Asphalt 0 ft / 0 m 0 ft / 0 m
18 148 ft / 45 m 9,873 ft / 3,009 m 179.95° 180.32° Asphalt 0 ft / 0 m 0 ft / 0 m
24 148 ft / 45 m 12,238 ft / 3,730 m 239.86° 240.23° Asphalt 2,370 ft / 722 m 0 ft / 0 m
36 148 ft / 45 m 9,873 ft / 3,009 m 359.95° 0.32° Asphalt 0 ft / 0 m 0 ft / 0 m

Popular Alternatives